Time;durP1;ratioP1;P1;durP2;ratioP2;P2;SDS_P1;SDS_P2;PMS_P1;PMS_P2;Temp;Humidity;BMP_temperature;BMP_pressure;BME280_temperature;BME280_humidity;BME280_pressure;Samples;Min_cycle;Max_cycle;Signal;HPM_P1;HPM_P2
2023/06/15 00:00:56;;;;;;;7.28;5.07;;;;;;;20.99;40.04;99864.56;4894716;28;20060;-88
2023/06/15 00:03:23;;;;;;;9.30;5.20;;;;;;;21.02;39.77;99865.00;4890628;28;20102;-90
2023/06/15 00:05:51;;;;;;;6.50;5.20;;;;;;;20.91;39.65;99868.25;4909815;28;20040;-88
2023/06/15 00:08:18;;;;;;;10.98;5.22;;;;;;;20.89;40.13;99870.34;4901387;28;20040;-89
2023/06/15 00:10:45;;;;;;;7.03;5.18;;;;;;;20.84;40.17;99867.41;4915283;28;20542;-89
2023/06/15 00:13:12;;;;;;;15.43;5.78;;;;;;;20.90;39.89;99868.47;4918732;28;20047;-89
2023/06/15 00:15:39;;;;;;;7.78;5.10;;;;;;;20.85;40.17;99865.56;4904785;28;20093;-89
2023/06/15 00:18:06;;;;;;;7.78;5.30;;;;;;;20.81;40.12;99865.09;4917744;28;20102;-87
2023/06/15 00:20:34;;;;;;;7.53;5.30;;;;;;;20.80;39.98;99877.78;4921974;28;20122;-88
2023/06/15 00:23:01;;;;;;;7.20;5.63;;;;;;;20.83;40.46;99876.53;4929847;28;20126;-88
2023/06/15 00:25:28;;;;;;;9.57;4.68;;;;;;;20.76;40.05;99867.56;4909884;28;20044;-88
2023/06/15 00:31:00;;;;;;;6.97;5.35;;;;;;;20.71;40.34;99870.91;4930284;28;20452;-90
2023/06/15 00:33:27;;;;;;;9.20;5.03;;;;;;;20.60;40.52;99872.28;4905885;28;20050;-88
2023/06/15 00:35:53;;;;;;;7.45;4.95;;;;;;;20.65;40.42;99870.84;4903578;28;20411;-88
2023/06/15 00:38:20;;;;;;;7.38;5.03;;;;;;;20.65;40.49;99870.84;4908129;28;20137;-89
2023/06/15 00:40:48;;;;;;;9.32;5.03;;;;;;;20.68;40.35;99876.69;4929015;28;20051;-89
2023/06/15 00:43:15;;;;;;;11.05;5.65;;;;;;;20.67;40.28;99871.50;4912830;28;20487;-89
2023/06/15 00:45:41;;;;;;;9.40;4.78;;;;;;;20.66;40.44;99876.06;4902402;28;20128;-87
2023/06/15 00:48:08;;;;;;;6.90;5.03;;;;;;;20.67;40.36;99877.72;4899315;28;20124;-87
2023/06/15 00:50:37;;;;;;;6.88;4.60;;;;;;;20.66;40.50;99881.47;4913627;28;20044;-89
2023/06/15 00:53:06;;;;;;;11.15;5.43;;;;;;;20.51;40.83;99881.56;4905449;28;20052;-88
2023/06/15 00:55:33;;;;;;;6.80;5.03;;;;;;;20.54;40.77;99873.09;4914763;28;20102;-87
2023/06/15 00:58:01;;;;;;;7.07;5.00;;;;;;;20.51;41.00;99880.72;4906903;28;20090;-89
2023/06/15 01:00:36;;;;;;;9.07;5.18;;;;;;;20.41;41.10;99882.97;4913733;28;20124;-89
2023/06/15 01:03:30;;;;;;;7.85;4.80;;;;;;;20.32;41.18;99883.09;4900724;28;20086;-89
2023/06/15 01:05:58;;;;;;;7.28;5.15;;;;;;;20.46;40.86;99885.88;4885886;28;20086;-88
2023/06/15 01:08:26;;;;;;;7.30;5.38;;;;;;;20.43;40.96;99889.81;4912054;28;20043;-89
2023/06/15 01:10:56;;;;;;;10.82;4.85;;;;;;;20.38;41.18;99881.50;4887007;28;20051;-88
2023/06/15 01:13:24;;;;;;;7.20;4.70;;;;;;;20.45;40.95;99886.91;4887387;28;20056;-88
2023/06/15 01:15:53;;;;;;;6.95;4.93;;;;;;;20.43;41.18;99887.13;4915893;28;20956;-89
2023/06/15 01:18:21;;;;;;;7.40;4.82;;;;;;;20.47;41.16;99884.84;4896890;28;20134;-87
2023/06/15 01:20:48;;;;;;;7.32;5.05;;;;;;;20.51;41.07;99881.56;4916924;28;20047;-90
2023/06/15 01:23:35;;;;;;;6.65;4.55;;;;;;;20.42;41.43;99890.84;4899037;28;20048;-88
2023/06/15 01:26:05;;;;;;;7.35;4.45;;;;;;;20.55;41.32;99900.91;4899391;28;20058;-89
2023/06/15 01:28:35;;;;;;;5.60;4.28;;;;;;;20.57;41.27;99890.75;4889988;28;20056;-88
2023/06/15 01:31:02;;;;;;;6.45;4.95;;;;;;;20.56;41.21;99889.91;4917099;28;20071;-90
2023/06/15 01:33:30;;;;;;;7.65;5.07;;;;;;;20.49;41.49;99889.00;4902274;28;20048;-89
2023/06/15 01:35:58;;;;;;;4.88;4.20;;;;;;;20.55;40.89;99882.00;4899794;28;20047;-89
2023/06/15 01:38:28;;;;;;;8.85;4.90;;;;;;;20.54;41.21;99883.88;4906105;28;20128;-89
2023/06/15 01:40:55;;;;;;;8.50;5.32;;;;;;;20.42;41.46;99892.69;4927807;28;20048;-87
2023/06/15 01:43:24;;;;;;;5.63;4.60;;;;;;;20.35;41.42;99884.56;4901607;28;20447;-88
2023/06/15 01:45:52;;;;;;;8.02;4.88;;;;;;;20.26;41.83;99885.75;4869695;28;20052;-89
2023/06/15 01:48:20;;;;;;;5.90;4.50;;;;;;;20.04;42.05;99880.41;4914215;28;20495;-88
2023/06/15 01:50:48;;;;;;;7.63;4.63;;;;;;;20.09;41.98;99885.22;4883293;28;20051;-88
2023/06/15 01:53:15;;;;;;;7.05;4.15;;;;;;;20.12;42.02;99884.81;4881342;28;20059;-88
2023/06/15 01:55:42;;;;;;;5.80;4.85;;;;;;;20.02;42.22;99877.06;4906379;28;20039;-87
2023/06/15 01:58:11;;;;;;;8.73;5.15;;;;;;;20.05;41.98;99882.09;4914802;28;20051;-89
2023/06/15 02:00:38;;;;;;;8.77;4.75;;;;;;;20.01;42.21;99882.69;4916092;28;20036;-89
2023/06/15 02:03:04;;;;;;;5.30;4.40;;;;;;;20.12;42.25;99885.69;4890671;28;20392;-89
2023/06/15 02:05:32;;;;;;;7.25;5.07;;;;;;;20.17;42.32;99877.84;4901981;28;20048;-90
2023/06/15 02:07:59;;;;;;;6.30;4.40;;;;;;;20.17;42.13;99879.66;4918770;28;20048;-88
2023/06/15 02:10:27;;;;;;;6.35;4.53;;;;;;;20.20;42.31;99879.31;4904058;28;25378;-88
2023/06/15 02:12:54;;;;;;;6.97;5.20;;;;;;;20.25;42.05;99878.69;4912432;28;20048;-87
2023/06/15 02:15:21;;;;;;;9.02;4.68;;;;;;;20.25;42.29;99878.69;4883067;28;20050;-87
2023/06/15 02:18:00;;;;;;;5.40;4.20;;;;;;;20.19;42.45;99874.09;4889740;28;20057;-89
2023/06/15 02:20:28;;;;;;;7.55;4.35;;;;;;;20.23;42.31;99876.22;4886880;28;20447;-87
2023/06/15 02:22:57;;;;;;;5.68;4.50;;;;;;;20.17;42.42;99882.38;4855597;28;20052;-88
2023/06/15 02:25:24;;;;;;;6.90;4.40;;;;;;;20.14;42.37;99872.81;4848295;28;20079;-89
2023/06/15 02:27:56;;;;;;;5.18;4.47;;;;;;;20.10;42.38;99876.13;4865502;28;20044;-88
2023/06/15 02:30:31;;;;;;;7.03;4.40;;;;;;;20.13;42.85;99881.94;4891464;28;20051;-88
2023/06/15 02:33:00;;;;;;;9.05;4.28;;;;;;;20.14;42.81;99880.06;4901851;28;20044;-88
2023/06/15 02:35:28;;;;;;;6.53;4.10;;;;;;;20.19;42.48;99880.31;4915047;28;20044;-88
2023/06/15 02:37:55;;;;;;;6.55;4.80;;;;;;;20.14;42.66;99886.28;4905763;28;20589;-88
2023/06/15 02:40:22;;;;;;;6.88;4.60;;;;;;;20.17;42.87;99879.66;4899783;28;20052;-88
2023/06/15 02:42:49;;;;;;;8.85;4.43;;;;;;;20.15;42.69;99882.59;4898248;28;20531;-87
2023/06/15 02:45:19;;;;;;;8.27;5.10;;;;;;;20.15;42.79;99884.47;4902516;28;20094;-88
2023/06/15 02:47:47;;;;;;;6.82;4.65;;;;;;;20.08;42.81;99878.19;4915993;28;20040;-89
2023/06/15 02:50:14;;;;;;;8.85;4.80;;;;;;;20.08;42.83;99880.88;4886220;28;21048;-89
2023/06/15 02:52:48;;;;;;;5.53;4.55;;;;;;;20.08;43.08;99886.25;4899622;28;20044;-88
2023/06/15 02:55:15;;;;;;;9.55;4.75;;;;;;;20.04;43.21;99882.28;4890897;28;20048;-88
2023/06/15 02:57:43;;;;;;;7.75;4.72;;;;;;;19.97;43.28;99889.47;4914809;28;20058;-89
2023/06/15 03:00:36;;;;;;;5.70;4.97;;;;;;;19.88;43.47;99895.03;4913143;28;20395;-89
2023/06/15 03:03:27;;;;;;;7.50;4.75;;;;;;;19.97;43.44;99892.19;4904035;28;20059;-88
2023/06/15 03:05:56;;;;;;;5.70;3.75;;;;;;;19.94;43.82;99893.41;4896333;28;20497;-87
2023/06/15 03:08:24;;;;;;;5.80;4.63;;;;;;;19.97;43.77;99897.56;4890499;28;20137;-88
2023/06/15 03:10:55;;;;;;;8.02;4.70;;;;;;;19.95;43.82;99905.88;4880084;28;20396;-83
2023/06/15 03:13:24;;;;;;;7.32;4.75;;;;;;;19.83;44.16;99904.72;4910002;28;20040;-84
2023/06/15 03:15:52;;;;;;;6.18;5.30;;;;;;;19.82;44.03;99905.72;4916865;28;20131;-83
2023/06/15 03:18:18;;;;;;;5.80;4.63;;;;;;;19.86;43.77;99910.53;4917448;28;20126;-83
2023/06/15 03:20:52;;;;;;;6.60;4.45;;;;;;;19.92;43.93;99917.00;4905623;28;20758;-83
2023/06/15 03:23:19;;;;;;;8.13;4.32;;;;;;;19.93;43.97;99911.44;4914120;28;20565;-83
2023/06/15 03:25:47;;;;;;;8.00;5.18;;;;;;;19.91;44.08;99916.19;4909809;28;20512;-83
2023/06/15 03:28:13;;;;;;;5.65;4.22;;;;;;;19.94;43.89;99921.19;4914409;28;20071;-83
2023/06/15 03:30:40;;;;;;;6.25;4.90;;;;;;;19.92;44.08;99925.09;4914886;28;20411;-83
2023/06/15 03:33:07;;;;;;;6.03;4.10;;;;;;;19.93;44.41;99921.38;4896593;28;20500;-84
2023/06/15 03:35:35;;;;;;;6.80;4.50;;;;;;;19.92;44.25;99925.09;4902089;28;20068;-84
2023/06/15 03:38:01;;;;;;;7.22;4.50;;;;;;;19.92;44.51;99925.97;4910614;28;20048;-84
2023/06/15 03:40:30;;;;;;;4.63;4.10;;;;;;;19.93;44.67;99929.47;4891373;28;20119;-83
2023/06/15 03:42:57;;;;;;;7.75;5.20;;;;;;;20.00;44.40;99927.69;4895748;28;20050;-83
2023/06/15 03:45:24;;;;;;;6.88;4.60;;;;;;;19.91;44.30;99924.28;4915001;28;20139;-83
2023/06/15 03:47:51;;;;;;;6.93;4.80;;;;;;;19.91;44.49;99929.66;4910596;28;20048;-83
2023/06/15 03:50:18;;;;;;;6.57;4.85;;;;;;;20.04;44.24;99936.19;4886204;28;20435;-83
2023/06/15 03:52:45;;;;;;;7.80;5.13;;;;;;;20.11;44.45;99934.38;4914667;28;20070;-84
2023/06/15 03:55:13;;;;;;;7.72;5.03;;;;;;;20.29;44.99;99923.13;4905862;28;20067;-83
2023/06/15 03:57:40;;;;;;;5.80;5.03;;;;;;;20.72;45.14;99931.09;4892285;28;20047;-85
2023/06/15 04:00:08;;;;;;;5.43;4.93;;;;;;;21.36;44.30;99930.72;4899825;28;20052;-83
2023/06/15 04:02:39;;;;;;;8.52;5.03;;;;;;;22.14;42.34;99938.34;4901858;28;20055;-84
2023/06/15 04:05:06;;;;;;;6.22;5.20;;;;;;;22.65;40.48;99936.84;4907213;28;20064;-85
2023/06/15 04:07:39;;;;;;;6.85;5.18;;;;;;;22.69;40.18;99936.19;4874340;28;20058;-84
2023/06/15 04:10:09;;;;;;;7.20;5.30;;;;;;;22.53;40.17;99939.34;4922890;28;20052;-86
2023/06/15 04:12:36;;;;;;;7.53;5.55;;;;;;;22.37;40.34;99939.81;4911019;28;20143;-84
2023/06/15 04:15:03;;;;;;;8.27;4.85;;;;;;;22.19;40.64;99946.69;4900810;28;20046;-84
2023/06/15 04:17:31;;;;;;;7.63;5.30;;;;;;;22.10;40.55;99947.88;4898284;28;20048;-84
2023/06/15 04:19:58;;;;;;;7.35;5.40;;;;;;;21.99;41.09;99953.94;4912751;28;20048;-84
2023/06/15 04:22:25;;;;;;;5.80;4.60;;;;;;;21.85;41.06;99958.47;4895099;28;20507;-85
2023/06/15 04:24:52;;;;;;;10.07;4.90;;;;;;;21.79;41.60;99956.63;4898451;28;20064;-85
2023/06/15 04:27:19;;;;;;;8.35;5.45;;;;;;;21.78;41.59;99955.78;4890566;28;20083;-83
2023/06/15 04:29:49;;;;;;;6.68;4.57;;;;;;;21.83;41.68;99958.72;4893920;28;20483;-83
2023/06/15 04:32:17;;;;;;;11.27;5.80;;;;;;;21.73;41.89;99960.97;4895757;28;20047;-82
2023/06/15 04:34:47;;;;;;;7.30;5.00;;;;;;;21.75;41.49;99960.75;4891009;28;20055;-83
2023/06/15 04:37:16;;;;;;;8.88;5.43;;;;;;;21.68;42.10;99969.69;4891651;28;20440;-83
2023/06/15 04:39:45;;;;;;;7.03;4.90;;;;;;;21.64;42.39;99981.94;4899697;28;20039;-83
2023/06/15 04:42:12;;;;;;;6.93;5.07;;;;;;;21.63;42.43;99972.19;4900598;28;20082;-82
2023/06/15 04:44:39;;;;;;;7.55;5.47;;;;;;;21.65;42.34;99967.41;4914434;28;20050;-82
2023/06/15 04:47:07;;;;;;;5.97;5.25;;;;;;;21.60;42.32;99983.41;4918760;28;20044;-83
2023/06/15 04:49:34;;;;;;;7.57;5.30;;;;;;;21.57;42.21;99985.66;4906311;28;20459;-83
2023/06/15 04:52:01;;;;;;;7.93;5.05;;;;;;;21.45;42.27;99980.03;4916759;28;20078;-83
2023/06/15 04:54:30;;;;;;;6.57;5.13;;;;;;;21.44;42.71;99984.59;4900578;28;20102;-83
2023/06/15 04:56:58;;;;;;;9.43;4.97;;;;;;;21.40;42.78;99982.53;4889245;28;20388;-83
2023/06/15 04:59:25;;;;;;;9.02;4.80;;;;;;;21.14;43.10;99983.19;4900349;28;20510;-83
2023/06/15 05:01:52;;;;;;;9.32;5.43;;;;;;;21.07;43.15;99987.75;4897719;28;20048;-83
2023/06/15 05:04:29;;;;;;;6.40;5.00;;;;;;;21.06;43.45;99992.28;4884540;28;20117;-83
2023/06/15 05:06:56;;;;;;;5.32;4.63;;;;;;;20.91;43.39;99986.19;4908167;28;20048;-83
2023/06/15 05:09:23;;;;;;;11.52;5.28;;;;;;;20.90;43.71;99993.47;4895889;28;20048;-83
2023/06/15 05:11:52;;;;;;;10.10;5.32;;;;;;;20.89;43.61;99993.66;4888858;28;20162;-83
2023/06/15 05:14:19;;;;;;;6.68;5.07;;;;;;;20.85;43.90;99995.09;4928469;28;20491;-83
2023/06/15 05:16:46;;;;;;;9.85;5.78;;;;;;;20.80;43.91;99993.00;4896640;28;20190;-83
2023/06/15 05:19:14;;;;;;;7.80;5.22;;;;;;;20.86;44.13;99992.19;4908128;28;20056;-83
2023/06/15 05:21:42;;;;;;;5.45;4.90;;;;;;;20.85;44.16;99987.00;4898693;28;20055;-83
2023/06/15 05:24:11;;;;;;;6.63;5.35;;;;;;;20.92;43.92;99995.97;4896621;28;20086;-83
2023/06/15 05:26:38;;;;;;;10.52;5.03;;;;;;;20.94;44.10;99996.59;4919927;28;20101;-83
2023/06/15 05:29:09;;;;;;;11.35;5.20;;;;;;;20.86;44.74;99991.34;4916262;28;20059;-83
2023/06/15 05:31:36;;;;;;;7.85;5.53;;;;;;;20.95;44.54;99995.56;4904652;28;20052;-83
2023/06/15 05:34:03;;;;;;;6.05;5.22;;;;;;;20.94;44.39;99999.28;4873690;28;20063;-83
2023/06/15 05:36:34;;;;;;;6.45;5.30;;;;;;;20.89;44.76;99999.06;4900208;28;20067;-83
2023/06/15 05:39:21;;;;;;;6.57;5.10;;;;;;;20.93;44.70;100005.72;4879429;28;20137;-83
2023/06/15 05:41:49;;;;;;;8.60;5.40;;;;;;;20.96;44.49;100003.50;4905708;28;20051;-83
2023/06/15 05:44:16;;;;;;;7.57;5.50;;;;;;;20.97;45.04;100007.00;4902372;28;20407;-84
2023/06/15 05:46:43;;;;;;;7.88;5.03;;;;;;;20.95;44.71;100004.50;4899454;28;20044;-83
2023/06/15 05:49:11;;;;;;;10.95;5.47;;;;;;;20.95;44.64;100011.78;4894899;28;20252;-83
2023/06/15 05:51:38;;;;;;;9.77;5.50;;;;;;;20.91;44.47;100015.88;4908369;28;20838;-84
2023/06/15 05:54:05;;;;;;;6.80;5.38;;;;;;;21.02;44.76;100015.34;4889016;28;20071;-85
2023/06/15 05:56:34;;;;;;;10.98;5.78;;;;;;;21.08;44.54;100006.44;4884963;28;20639;-84
2023/06/15 05:59:02;;;;;;;6.47;5.20;;;;;;;21.05;44.49;100014.94;4901437;28;20059;-84
2023/06/15 06:01:29;;;;;;;7.82;5.95;;;;;;;21.01;44.36;100013.66;4898708;28;20127;-84
2023/06/15 06:03:56;;;;;;;7.80;5.90;;;;;;;21.03;44.50;100011.59;4906970;28;20086;-84
2023/06/15 06:06:24;;;;;;;12.43;6.70;;;;;;;21.01;44.87;100011.81;4910554;28;20055;-84
2023/06/15 06:08:51;;;;;;;6.82;5.10;;;;;;;20.98;44.71;100019.47;4905419;28;20054;-84
2023/06/15 06:11:18;;;;;;;7.72;5.93;;;;;;;20.95;44.52;100017.16;4912690;28;20044;-85
2023/06/15 06:13:51;;;;;;;9.30;5.82;;;;;;;20.96;44.60;100019.69;4904745;28;20054;-84
2023/06/15 06:16:18;;;;;;;9.77;6.28;;;;;;;20.96;44.79;100016.97;4914804;28;20043;-84
2023/06/15 06:18:45;;;;;;;11.57;5.72;;;;;;;20.97;44.63;100018.63;4914423;28;20134;-84
2023/06/15 06:21:15;;;;;;;8.65;6.55;;;;;;;20.99;44.72;100010.34;4874983;28;20146;-84
2023/06/15 06:23:42;;;;;;;9.80;5.63;;;;;;;21.05;45.09;100009.53;4912481;28;20372;-84
2023/06/15 06:26:09;;;;;;;7.78;5.60;;;;;;;21.06;44.78;100013.06;4898881;28;20067;-84
2023/06/15 06:28:36;;;;;;;9.77;6.35;;;;;;;21.10;45.04;100014.34;4907080;28;20047;-84
2023/06/15 06:31:04;;;;;;;8.68;6.10;;;;;;;21.11;44.66;100007.91;4913792;28;20131;-84
2023/06/15 06:33:31;;;;;;;8.73;5.97;;;;;;;21.11;44.98;100010.59;4924626;28;20051;-84
2023/06/15 06:35:57;;;;;;;9.70;6.18;;;;;;;21.15;44.67;100010.00;4905567;28;20048;-84
2023/06/15 06:38:24;;;;;;;11.50;6.45;;;;;;;21.14;45.03;100018.28;4902675;28;20075;-84
2023/06/15 06:40:51;;;;;;;7.78;5.43;;;;;;;21.20;44.54;100012.09;4902129;28;20075;-84
2023/06/15 06:43:18;;;;;;;6.63;5.57;;;;;;;21.20;44.94;100004.84;4911898;28;20496;-84
2023/06/15 06:45:45;;;;;;;11.23;5.95;;;;;;;21.22;44.84;100013.56;4885896;28;20048;-84
2023/06/15 06:48:11;;;;;;;7.22;6.10;;;;;;;21.29;45.33;100018.16;4898044;28;20062;-85
2023/06/15 06:50:38;;;;;;;7.63;6.32;;;;;;;21.31;44.75;100018.81;4887498;28;20482;-84
2023/06/15 06:53:05;;;;;;;10.30;6.35;;;;;;;21.32;44.94;100013.22;4881618;28;20407;-85
2023/06/15 06:55:32;;;;;;;10.38;6.35;;;;;;;21.31;44.66;100005.28;4900448;28;20044;-84
2023/06/15 06:58:00;;;;;;;8.25;5.93;;;;;;;21.29;45.18;100002.78;4913284;28;20056;-84
2023/06/15 07:00:31;;;;;;;9.90;6.40;;;;;;;21.33;45.02;100008.63;4916084;28;20424;-84
2023/06/15 07:02:58;;;;;;;7.40;6.35;;;;;;;21.39;44.86;100007.84;4890690;28;20048;-84
2023/06/15 07:05:25;;;;;;;12.80;6.60;;;;;;;21.42;45.12;100011.00;4925202;28;20411;-84
2023/06/15 07:07:51;;;;;;;12.02;7.28;;;;;;;21.41;44.89;100003.06;4912734;28;20040;-85
2023/06/15 07:10:18;;;;;;;8.38;5.95;;;;;;;21.40;44.58;100004.13;4888727;28;20066;-84
2023/06/15 07:12:45;;;;;;;7.13;5.97;;;;;;;21.42;44.83;100011.00;4906720;28;20048;-85
2023/06/15 07:15:13;;;;;;;6.88;6.15;;;;;;;21.43;44.90;100015.34;4894518;28;20056;-84
2023/06/15 07:17:40;;;;;;;8.60;6.43;;;;;;;21.43;44.68;100011.81;4927184;28;20103;-85
2023/06/15 07:20:07;;;;;;;7.25;5.93;;;;;;;21.50;44.70;100011.81;4896380;28;20506;-84
2023/06/15 07:22:34;;;;;;;9.13;6.60;;;;;;;21.53;44.69;100014.97;4914584;28;20071;-84
2023/06/15 07:25:01;;;;;;;8.02;6.10;;;;;;;21.57;45.35;100018.91;4904296;28;20044;-85
2023/06/15 07:27:28;;;;;;;6.68;5.65;;;;;;;21.52;44.42;100012.47;4926806;28;20402;-84
2023/06/15 07:29:55;;;;;;;8.10;6.22;;;;;;;21.57;44.86;100010.81;4907563;28;20446;-84
2023/06/15 07:32:21;;;;;;;8.13;6.50;;;;;;;21.62;45.24;100012.91;4901383;28;20040;-85
2023/06/15 07:34:48;;;;;;;9.07;6.03;;;;;;;21.61;44.89;100008.56;4902718;28;20051;-84
2023/06/15 07:37:15;;;;;;;6.80;5.60;;;;;;;21.59;44.69;99999.81;4902337;28;20056;-84
2023/06/15 07:39:42;;;;;;;9.40;6.32;;;;;;;21.62;44.47;100002.94;4911768;28;20106;-84
2023/06/15 07:42:09;;;;;;;6.78;5.80;;;;;;;21.67;44.39;100005.03;4896939;28;20066;-84
2023/06/15 07:44:36;;;;;;;10.13;6.47;;;;;;;21.65;43.92;100004.38;4904957;28;20456;-84
2023/06/15 07:47:03;;;;;;;9.48;6.72;;;;;;;21.70;44.35;100004.59;4914911;28;20736;-84
2023/06/15 07:49:29;;;;;;;8.52;5.70;;;;;;;21.68;43.85;100004.84;4914943;28;20048;-84
2023/06/15 07:52:12;;;;;;;8.23;6.30;;;;;;;21.72;43.79;100002.53;4894982;28;20074;-85
2023/06/15 07:54:38;;;;;;;8.38;6.45;;;;;;;21.74;44.13;100002.34;4900172;28;22324;-85
2023/06/15 07:57:05;;;;;;;8.38;6.68;;;;;;;21.76;43.94;99998.41;4905189;28;20045;-84
2023/06/15 07:59:32;;;;;;;9.32;6.05;;;;;;;21.76;43.74;100000.28;4887105;28;20051;-85
2023/06/15 08:02:02;;;;;;;10.63;6.15;;;;;;;21.77;43.83;99999.22;4887995;28;20044;-85
2023/06/15 08:04:29;;;;;;;9.82;6.45;;;;;;;21.79;43.95;100002.56;4911525;28;20106;-85
2023/06/15 08:06:56;;;;;;;8.35;6.60;;;;;;;21.76;43.75;99998.41;4896279;28;20048;-85
2023/06/15 08:09:23;;;;;;;7.45;6.20;;;;;;;21.77;43.30;100010.03;4909797;28;20618;-84
2023/06/15 08:11:50;;;;;;;6.85;5.47;;;;;;;21.81;43.47;100004.03;4915730;28;20052;-84
2023/06/15 08:14:19;;;;;;;7.15;5.35;;;;;;;21.86;43.64;99989.91;4899369;28;20055;-84
2023/06/15 08:16:47;;;;;;;11.50;6.25;;;;;;;21.95;43.67;99996.75;4887534;28;20071;-85
2023/06/15 08:19:14;;;;;;;8.77;6.32;;;;;;;21.98;43.04;99992.81;4929412;28;20075;-85
2023/06/15 08:21:41;;;;;;;7.22;6.25;;;;;;;22.00;43.23;99996.16;4891528;28;20051;-85
2023/06/15 08:24:08;;;;;;;7.70;6.10;;;;;;;22.03;43.08;100004.69;4919187;28;20048;-85
2023/06/15 08:26:35;;;;;;;8.60;6.18;;;;;;;22.03;43.03;99993.03;4931581;28;20052;-85
2023/06/15 08:29:02;;;;;;;8.45;5.90;;;;;;;22.06;42.71;100004.28;4894447;28;20058;-84
2023/06/15 08:31:48;;;;;;;6.28;5.68;;;;;;;22.07;43.00;100003.22;4912016;28;20080;-84
2023/06/15 08:34:14;;;;;;;6.72;5.85;;;;;;;22.09;42.46;99992.22;4903311;28;20679;-84
2023/06/15 08:36:41;;;;;;;8.25;5.47;;;;;;;22.12;42.68;99997.19;4890691;28;20059;-85
2023/06/15 08:39:08;;;;;;;6.22;5.63;;;;;;;22.22;42.51;99984.13;4904122;28;20766;-84
2023/06/15 08:41:38;;;;;;;7.05;5.50;;;;;;;22.26;42.77;99987.22;4915985;28;20052;-85
2023/06/15 08:44:05;;;;;;;7.10;6.25;;;;;;;22.26;42.23;99984.53;4994060;28;20139;-84
2023/06/15 08:46:32;;;;;;;9.50;5.85;;;;;;;22.28;42.22;99994.09;4880834;28;20123;-84
2023/06/15 08:49:02;;;;;;;9.95;6.60;;;;;;;22.32;42.05;99975.59;4915776;28;20068;-84
2023/06/15 08:51:29;;;;;;;8.32;5.50;;;;;;;22.30;41.67;99983.09;4910067;28;20068;-84
2023/06/15 08:53:57;;;;;;;7.80;5.38;;;;;;;22.32;41.16;99997.25;4901571;28;20068;-84
2023/06/15 08:56:24;;;;;;;7.55;5.35;;;;;;;22.24;39.92;99986.63;4930215;28;20052;-85
2023/06/15 08:58:51;;;;;;;6.97;5.90;;;;;;;22.28;39.83;99994.09;4889830;28;20848;-84
2023/06/15 09:01:23;;;;;;;8.07;5.65;;;;;;;22.28;39.87;99985.16;4929369;28;20134;-84
2023/06/15 09:03:52;;;;;;;10.70;6.22;;;;;;;22.31;40.20;99985.59;4901958;28;20047;-85
2023/06/15 09:06:19;;;;;;;6.22;5.03;;;;;;;22.30;40.51;99985.78;4899781;28;20058;-84
2023/06/15 09:08:48;;;;;;;7.85;5.78;;;;;;;22.41;40.40;99989.72;4901737;28;20052;-84
2023/06/15 09:11:18;;;;;;;7.30;5.30;;;;;;;22.37;39.20;99983.09;4900626;28;20388;-84
2023/06/15 09:13:45;;;;;;;10.07;4.97;;;;;;;22.37;39.28;99992.03;4891139;28;20048;-85
2023/06/15 09:16:12;;;;;;;9.65;5.63;;;;;;;22.41;39.71;99979.75;4899075;28;20142;-85
2023/06/15 09:18:46;;;;;;;9.05;5.53;;;;;;;22.42;39.96;99977.88;4898914;28;20142;-85
2023/06/15 09:21:14;;;;;;;7.88;5.53;;;;;;;22.47;40.38;99978.09;4911028;28;20513;-85
2023/06/15 09:23:42;;;;;;;8.48;5.30;;;;;;;22.49;40.06;99981.41;4888928;28;20127;-84
2023/06/15 09:26:09;;;;;;;5.40;4.80;;;;;;;22.53;39.80;99977.25;4914382;28;20127;-84
2023/06/15 09:28:43;;;;;;;7.93;5.15;;;;;;;22.51;39.84;99972.03;4927674;28;20056;-85
2023/06/15 09:31:10;;;;;;;6.70;5.10;;;;;;;22.61;40.36;99970.78;4910327;28;20127;-84
2023/06/15 09:33:37;;;;;;;6.25;4.90;;;;;;;22.65;40.15;99986.38;4902239;28;20136;-84
2023/06/15 09:36:06;;;;;;;6.00;5.38;;;;;;;22.69;39.99;99967.84;4905646;28;20169;-85
2023/06/15 09:38:45;;;;;;;9.43;5.85;;;;;;;22.69;39.86;99970.53;4905400;28;20050;-84
2023/06/15 09:41:14;;;;;;;9.23;5.80;;;;;;;22.78;39.97;99976.56;4882992;28;20385;-85
2023/06/15 09:43:41;;;;;;;12.43;5.75;;;;;;;22.69;39.66;99981.38;4864188;28;20122;-85
2023/06/15 09:46:12;;;;;;;7.07;5.45;;;;;;;22.70;39.38;99974.94;4897218;28;21805;-84
2023/06/15 09:48:40;;;;;;;6.85;5.00;;;;;;;22.68;39.05;99974.31;4905251;28;20075;-85
2023/06/15 09:51:07;;;;;;;6.35;4.68;;;;;;;22.71;38.89;99982.00;4895801;28;20067;-85
2023/06/15 09:53:35;;;;;;;5.78;4.40;;;;;;;22.71;38.98;99976.59;4914497;28;20471;-85
2023/06/15 09:56:02;;;;;;;6.32;5.25;;;;;;;22.76;39.36;99976.78;4917362;28;20040;-84
2023/06/15 09:58:50;;;;;;;5.32;4.80;;;;;;;22.81;39.24;99976.16;4901858;28;20139;-84
2023/06/15 10:01:17;;;;;;;10.45;5.25;;;;;;;22.82;39.17;99977.78;4897815;28;20866;-85
2023/06/15 10:03:52;;;;;;;6.50;4.90;;;;;;;22.69;38.06;99973.25;4902304;28;20054;-85
2023/06/15 10:06:20;;;;;;;5.82;4.47;;;;;;;22.65;38.27;99975.56;4881393;28;20065;-85
2023/06/15 10:08:51;;;;;;;5.50;4.72;;;;;;;22.62;38.36;99981.41;4902200;28;20056;-85
2023/06/15 10:11:20;;;;;;;6.70;5.05;;;;;;;22.62;38.81;99978.69;4923681;28;20044;-84
2023/06/15 10:14:08;;;;;;;6.00;4.88;;;;;;;22.52;38.19;99984.53;4894577;28;20055;-85
2023/06/15 10:16:38;;;;;;;5.38;4.45;;;;;;;22.71;38.36;99973.88;4897395;28;20071;-84
2023/06/15 10:19:05;;;;;;;6.95;4.57;;;;;;;22.75;38.47;99973.25;4905865;28;20127;-85
2023/06/15 10:21:36;;;;;;;5.13;4.10;;;;;;;22.79;38.45;99979.06;4899623;28;20049;-85
2023/06/15 10:24:10;;;;;;;9.40;4.10;;;;;;;22.76;37.53;99974.91;4910118;28;20056;-85
2023/06/15 10:26:38;;;;;;;7.57;4.43;;;;;;;22.82;37.55;99975.09;4911522;28;20048;-85
2023/06/15 10:29:12;;;;;;;5.50;4.43;;;;;;;22.82;37.60;99966.97;4905471;28;21009;-84
2023/06/15 10:31:47;;;;;;;5.20;4.20;;;;;;;22.89;37.45;99978.63;4892418;28;20048;-85
2023/06/15 10:34:39;;;;;;;7.82;4.63;;;;;;;22.90;37.39;99978.41;4928010;28;20051;-85
2023/06/15 10:37:13;;;;;;;6.97;4.07;;;;;;;22.92;36.31;99989.00;4904876;28;20083;-85
2023/06/15 10:39:47;;;;;;;5.38;4.35;;;;;;;22.86;35.67;99976.34;4894252;28;20043;-84
2023/06/15 10:42:14;;;;;;;4.43;3.55;;;;;;;22.82;36.37;99966.97;4907285;28;20048;-85
2023/06/15 10:44:41;;;;;;;5.03;4.13;;;;;;;22.92;36.32;99965.50;4914202;28;20794;-85
2023/06/15 10:47:09;;;;;;;4.50;3.95;;;;;;;22.88;35.08;99975.09;4900264;28;20384;-85
2023/06/15 10:49:36;;;;;;;6.35;4.43;;;;;;;22.91;35.89;99971.94;4913958;28;20043;-85
2023/06/15 10:52:06;;;;;;;4.55;4.15;;;;;;;22.94;36.08;99973.38;4903782;28;20043;-85
2023/06/15 10:54:35;;;;;;;6.53;4.25;;;;;;;22.99;35.96;99975.50;4902966;28;20060;-85
2023/06/15 10:57:02;;;;;;;6.70;5.22;;;;;;;23.02;35.75;99972.34;4903605;28;20056;-84
2023/06/15 10:59:54;;;;;;;4.95;3.78;;;;;;;22.97;35.36;99967.56;4923495;28;20040;-84
2023/06/15 11:02:31;;;;;;;5.68;4.15;;;;;;;23.04;34.67;99962.97;4907438;28;20052;-85
2023/06/15 11:05:08;;;;;;;8.25;5.05;;;;;;;23.02;34.82;99966.94;4910690;28;20411;-85
2023/06/15 11:07:41;;;;;;;5.65;4.57;;;;;;;23.12;35.37;99951.06;4912155;28;20097;-85
2023/06/15 11:10:21;;;;;;;7.30;4.97;;;;;;;23.07;35.59;99959.00;4904945;28;20392;-84
2023/06/15 11:13:01;;;;;;;6.88;5.18;;;;;;;23.11;36.05;99966.50;4908151;28;20610;-84
2023/06/15 11:15:34;;;;;;;6.20;4.93;;;;;;;23.09;35.67;99965.88;4886233;28;20055;-85
2023/06/15 11:18:05;;;;;;;5.05;4.47;;;;;;;23.10;35.24;99966.69;4931346;28;20046;-84
2023/06/15 11:20:45;;;;;;;5.95;4.57;;;;;;;23.10;34.79;99953.16;4892207;28;20039;-85
2023/06/15 11:23:16;;;;;;;8.02;5.00;;;;;;;23.17;35.21;99960.19;4911860;28;20123;-85
2023/06/15 11:25:44;;;;;;;6.43;4.45;;;;;;;23.21;35.02;99954.38;4916317;28;20730;-84
2023/06/15 11:28:15;;;;;;;6.03;5.05;;;;;;;23.25;34.62;99947.47;4914096;28;20395;-85
2023/06/15 11:31:02;;;;;;;6.22;4.78;;;;;;;23.30;34.65;99944.94;4927547;28;20051;-84
2023/06/15 11:33:30;;;;;;;6.72;4.55;;;;;;;23.31;33.87;99939.31;4914621;28;20044;-85
2023/06/15 11:36:10;;;;;;;5.43;4.28;;;;;;;23.31;33.10;99954.75;4918568;28;20079;-85
2023/06/15 11:38:37;;;;;;;7.00;4.80;;;;;;;23.35;32.79;99947.81;4900787;28;20477;-84
2023/06/15 11:41:07;;;;;;;7.07;4.70;;;;;;;23.35;32.25;99939.69;4903891;28;20832;-84
2023/06/15 11:43:40;;;;;;;4.95;4.10;;;;;;;23.39;33.00;99944.47;4874760;28;20056;-85